sensor_id;sensor_type;location;lat;lon;timestamp;P1;durP1;ratioP1;P2;durP2;ratioP2
12048;SDS011;6085;49.452;8.502;2023-07-13T00:00:05;1.02;;;0.93;;
12048;SDS011;6085;49.452;8.502;2023-07-13T00:04:10;0.82;;;0.80;;
12048;SDS011;6085;49.452;8.502;2023-07-13T00:08:13;1.20;;;1.13;;
12048;SDS011;6085;49.452;8.502;2023-07-13T00:12:22;0.60;;;0.60;;
12048;SDS011;6085;49.452;8.502;2023-07-13T00:16:26;1.10;;;1.10;;
12048;SDS011;6085;49.452;8.502;2023-07-13T00:20:28;0.88;;;0.88;;
12048;SDS011;6085;49.452;8.502;2023-07-13T00:24:31;0.60;;;0.60;;
12048;SDS011;6085;49.452;8.502;2023-07-13T00:28:34;1.08;;;0.98;;
12048;SDS011;6085;49.452;8.502;2023-07-13T00:32:37;0.80;;;0.80;;
12048;SDS011;6085;49.452;8.502;2023-07-13T00:36:39;0.70;;;0.70;;
12048;SDS011;6085;49.452;8.502;2023-07-13T00:40:43;1.67;;;0.80;;
12048;SDS011;6085;49.452;8.502;2023-07-13T00:49:02;1.17;;;0.68;;
12048;SDS011;6085;49.452;8.502;2023-07-13T00:53:07;0.63;;;0.63;;
12048;SDS011;6085;49.452;8.502;2023-07-13T00:57:11;1.50;;;0.57;;
12048;SDS011;6085;49.452;8.502;2023-07-13T01:01:16;1.35;;;0.90;;
12048;SDS011;6085;49.452;8.502;2023-07-13T01:05:20;0.75;;;0.75;;
12048;SDS011;6085;49.452;8.502;2023-07-13T01:09:22;1.65;;;0.90;;
12048;SDS011;6085;49.452;8.502;2023-07-13T01:13:26;0.80;;;0.80;;
12048;SDS011;6085;49.452;8.502;2023-07-13T01:17:28;1.10;;;1.00;;
12048;SDS011;6085;49.452;8.502;2023-07-13T01:21:32;0.80;;;0.80;;
12048;SDS011;6085;49.452;8.502;2023-07-13T01:25:35;0.95;;;0.90;;
12048;SDS011;6085;49.452;8.502;2023-07-13T01:29:38;1.10;;;1.10;;
12048;SDS011;6085;49.452;8.502;2023-07-13T01:33:42;0.98;;;0.95;;
12048;SDS011;6085;49.452;8.502;2023-07-13T01:37:46;0.88;;;0.88;;
12048;SDS011;6085;49.452;8.502;2023-07-13T01:41:48;0.98;;;0.90;;
12048;SDS011;6085;49.452;8.502;2023-07-13T01:45:50;1.25;;;1.17;;
12048;SDS011;6085;49.452;8.502;2023-07-13T01:49:52;1.30;;;1.20;;
12048;SDS011;6085;49.452;8.502;2023-07-13T01:53:56;1.33;;;1.30;;
12048;SDS011;6085;49.452;8.502;2023-07-13T01:57:58;1.20;;;1.20;;
12048;SDS011;6085;49.452;8.502;2023-07-13T02:02:00;0.90;;;0.90;;
12048;SDS011;6085;49.452;8.502;2023-07-13T02:06:02;1.10;;;1.00;;
12048;SDS011;6085;49.452;8.502;2023-07-13T02:10:06;1.17;;;1.08;;
12048;SDS011;6085;49.452;8.502;2023-07-13T02:14:11;1.13;;;1.00;;
12048;SDS011;6085;49.452;8.502;2023-07-13T02:18:12;1.02;;;1.02;;
12048;SDS011;6085;49.452;8.502;2023-07-13T02:22:17;0.95;;;0.95;;
12048;SDS011;6085;49.452;8.502;2023-07-13T02:26:20;1.00;;;1.00;;
12048;SDS011;6085;49.452;8.502;2023-07-13T02:30:22;1.02;;;1.00;;
12048;SDS011;6085;49.452;8.502;2023-07-13T02:34:24;1.40;;;1.27;;
12048;SDS011;6085;49.452;8.502;2023-07-13T02:38:26;1.20;;;1.10;;
12048;SDS011;6085;49.452;8.502;2023-07-13T02:42:30;1.17;;;0.98;;
12048;SDS011;6085;49.452;8.502;2023-07-13T02:46:32;1.23;;;1.13;;
12048;SDS011;6085;49.452;8.502;2023-07-13T02:50:35;1.35;;;1.23;;
12048;SDS011;6085;49.452;8.502;2023-07-13T02:54:37;0.90;;;0.90;;
12048;SDS011;6085;49.452;8.502;2023-07-13T02:58:40;1.23;;;1.20;;
12048;SDS011;6085;49.452;8.502;2023-07-13T03:02:42;1.33;;;1.23;;
12048;SDS011;6085;49.452;8.502;2023-07-13T03:06:45;1.10;;;1.10;;
12048;SDS011;6085;49.452;8.502;2023-07-13T03:10:48;1.23;;;1.13;;
12048;SDS011;6085;49.452;8.502;2023-07-13T03:14:51;1.30;;;1.20;;
12048;SDS011;6085;49.452;8.502;2023-07-13T03:18:53;1.20;;;0.93;;
12048;SDS011;6085;49.452;8.502;2023-07-13T03:22:55;1.08;;;1.08;;
12048;SDS011;6085;49.452;8.502;2023-07-13T03:26:57;1.80;;;1.00;;
12048;SDS011;6085;49.452;8.502;2023-07-13T03:31:00;3.15;;;1.10;;
12048;SDS011;6085;49.452;8.502;2023-07-13T03:35:04;1.02;;;1.02;;
12048;SDS011;6085;49.452;8.502;2023-07-13T03:39:08;0.90;;;0.90;;
12048;SDS011;6085;49.452;8.502;2023-07-13T03:43:10;1.38;;;1.27;;
12048;SDS011;6085;49.452;8.502;2023-07-13T03:47:14;1.30;;;1.20;;
12048;SDS011;6085;49.452;8.502;2023-07-13T03:51:16;1.02;;;1.00;;
12048;SDS011;6085;49.452;8.502;2023-07-13T03:55:18;1.05;;;1.05;;
12048;SDS011;6085;49.452;8.502;2023-07-13T03:59:20;1.45;;;1.35;;
12048;SDS011;6085;49.452;8.502;2023-07-13T04:03:24;1.10;;;1.10;;
12048;SDS011;6085;49.452;8.502;2023-07-13T04:07:27;1.00;;;1.00;;
12048;SDS011;6085;49.452;8.502;2023-07-13T04:11:30;1.13;;;1.10;;
12048;SDS011;6085;49.452;8.502;2023-07-13T04:15:32;1.50;;;1.35;;
12048;SDS011;6085;49.452;8.502;2023-07-13T04:19:36;2.05;;;1.45;;
12048;SDS011;6085;49.452;8.502;2023-07-13T04:23:38;1.90;;;1.30;;
12048;SDS011;6085;49.452;8.502;2023-07-13T04:27:41;1.25;;;1.20;;
12048;SDS011;6085;49.452;8.502;2023-07-13T04:31:43;1.55;;;1.45;;
12048;SDS011;6085;49.452;8.502;2023-07-13T04:35:46;1.80;;;1.50;;
12048;SDS011;6085;49.452;8.502;2023-07-13T04:39:49;1.50;;;1.40;;
12048;SDS011;6085;49.452;8.502;2023-07-13T04:43:51;1.23;;;1.20;;
12048;SDS011;6085;49.452;8.502;2023-07-13T04:47:53;2.00;;;1.58;;
12048;SDS011;6085;49.452;8.502;2023-07-13T04:51:56;2.30;;;1.30;;
12048;SDS011;6085;49.452;8.502;2023-07-13T04:55:58;1.85;;;1.45;;
12048;SDS011;6085;49.452;8.502;2023-07-13T05:00:00;1.50;;;1.42;;
12048;SDS011;6085;49.452;8.502;2023-07-13T05:04:07;1.45;;;1.35;;
12048;SDS011;6085;49.452;8.502;2023-07-13T05:08:10;2.20;;;1.20;;
12048;SDS011;6085;49.452;8.502;2023-07-13T05:12:12;1.48;;;1.38;;
12048;SDS011;6085;49.452;8.502;2023-07-13T05:16:14;1.55;;;1.40;;
12048;SDS011;6085;49.452;8.502;2023-07-13T05:20:16;2.17;;;1.63;;
12048;SDS011;6085;49.452;8.502;2023-07-13T05:24:20;1.58;;;1.48;;
12048;SDS011;6085;49.452;8.502;2023-07-13T05:28:23;1.63;;;1.30;;
12048;SDS011;6085;49.452;8.502;2023-07-13T05:32:26;1.58;;;1.20;;
12048;SDS011;6085;49.452;8.502;2023-07-13T05:36:28;1.55;;;1.45;;
12048;SDS011;6085;49.452;8.502;2023-07-13T05:40:31;1.75;;;1.20;;
12048;SDS011;6085;49.452;8.502;2023-07-13T05:44:33;1.50;;;1.40;;
12048;SDS011;6085;49.452;8.502;2023-07-13T05:48:35;1.30;;;1.20;;
12048;SDS011;6085;49.452;8.502;2023-07-13T05:52:37;1.95;;;1.23;;
12048;SDS011;6085;49.452;8.502;2023-07-13T05:56:40;1.77;;;1.38;;
12048;SDS011;6085;49.452;8.502;2023-07-13T06:00:42;1.90;;;1.55;;
12048;SDS011;6085;49.452;8.502;2023-07-13T06:04:44;1.45;;;1.30;;
12048;SDS011;6085;49.452;8.502;2023-07-13T06:08:46;1.63;;;1.50;;
12048;SDS011;6085;49.452;8.502;2023-07-13T06:12:50;1.63;;;1.50;;
12048;SDS011;6085;49.452;8.502;2023-07-13T06:16:52;1.83;;;1.65;;
12048;SDS011;6085;49.452;8.502;2023-07-13T06:20:54;4.68;;;1.92;;
12048;SDS011;6085;49.452;8.502;2023-07-13T06:24:55;2.42;;;1.60;;
12048;SDS011;6085;49.452;8.502;2023-07-13T06:28:59;2.33;;;1.63;;
12048;SDS011;6085;49.452;8.502;2023-07-13T06:33:01;2.25;;;2.00;;
12048;SDS011;6085;49.452;8.502;2023-07-13T06:37:03;2.05;;;1.65;;
12048;SDS011;6085;49.452;8.502;2023-07-13T06:41:05;2.30;;;1.52;;
12048;SDS011;6085;49.452;8.502;2023-07-13T06:45:10;1.50;;;1.40;;
12048;SDS011;6085;49.452;8.502;2023-07-13T06:49:12;2.00;;;1.80;;
12048;SDS011;6085;49.452;8.502;2023-07-13T06:53:13;2.17;;;1.55;;
12048;SDS011;6085;49.452;8.502;2023-07-13T06:57:15;3.70;;;1.80;;
12048;SDS011;6085;49.452;8.502;2023-07-13T07:01:19;2.17;;;1.40;;
12048;SDS011;6085;49.452;8.502;2023-07-13T07:05:20;2.92;;;1.70;;
12048;SDS011;6085;49.452;8.502;2023-07-13T07:09:23;1.67;;;1.58;;
12048;SDS011;6085;49.452;8.502;2023-07-13T07:13:24;2.03;;;1.80;;
12048;SDS011;6085;49.452;8.502;2023-07-13T07:17:30;1.80;;;1.70;;
12048;SDS011;6085;49.452;8.502;2023-07-13T07:21:32;1.98;;;1.48;;
12048;SDS011;6085;49.452;8.502;2023-07-13T07:25:34;1.98;;;1.80;;
12048;SDS011;6085;49.452;8.502;2023-07-13T07:29:42;1.85;;;1.48;;
12048;SDS011;6085;49.452;8.502;2023-07-13T07:33:45;1.60;;;1.48;;
12048;SDS011;6085;49.452;8.502;2023-07-13T07:37:47;1.45;;;1.35;;
12048;SDS011;6085;49.452;8.502;2023-07-13T07:41:49;1.65;;;1.55;;
12048;SDS011;6085;49.452;8.502;2023-07-13T07:45:51;1.92;;;1.65;;
12048;SDS011;6085;49.452;8.502;2023-07-13T07:49:54;1.88;;;1.10;;
12048;SDS011;6085;49.452;8.502;2023-07-13T07:53:57;1.92;;;1.05;;
12048;SDS011;6085;49.452;8.502;2023-07-13T07:57:59;1.38;;;0.88;;
12048;SDS011;6085;49.452;8.502;2023-07-13T08:02:01;2.25;;;1.08;;
12048;SDS011;6085;49.452;8.502;2023-07-13T08:06:05;1.35;;;0.70;;
12048;SDS011;6085;49.452;8.502;2023-07-13T08:10:07;0.65;;;0.52;;
12048;SDS011;6085;49.452;8.502;2023-07-13T08:14:09;0.90;;;0.90;;
12048;SDS011;6085;49.452;8.502;2023-07-13T08:18:11;1.88;;;1.00;;
12048;SDS011;6085;49.452;8.502;2023-07-13T08:22:15;0.80;;;0.68;;
12048;SDS011;6085;49.452;8.502;2023-07-13T08:26:17;1.08;;;0.90;;
12048;SDS011;6085;49.452;8.502;2023-07-13T08:30:19;1.00;;;0.90;;
12048;SDS011;6085;49.452;8.502;2023-07-13T08:34:21;1.65;;;1.00;;
12048;SDS011;6085;49.452;8.502;2023-07-13T08:38:24;2.25;;;0.85;;
12048;SDS011;6085;49.452;8.502;2023-07-13T08:42:30;0.77;;;0.70;;
12048;SDS011;6085;49.452;8.502;2023-07-13T08:46:38;0.85;;;0.70;;
12048;SDS011;6085;49.452;8.502;2023-07-13T08:50:45;1.05;;;0.68;;
12048;SDS011;6085;49.452;8.502;2023-07-13T08:54:55;1.20;;;0.77;;
12048;SDS011;6085;49.452;8.502;2023-07-13T08:59:00;0.85;;;0.68;;
12048;SDS011;6085;49.452;8.502;2023-07-13T09:03:12;1.55;;;1.00;;
12048;SDS011;6085;49.452;8.502;2023-07-13T09:07:23;1.60;;;0.80;;
12048;SDS011;6085;49.452;8.502;2023-07-13T09:11:40;1.77;;;0.73;;
12048;SDS011;6085;49.452;8.502;2023-07-13T09:15:48;1.83;;;0.88;;
12048;SDS011;6085;49.452;8.502;2023-07-13T09:19:53;2.00;;;0.98;;
12048;SDS011;6085;49.452;8.502;2023-07-13T09:24:01;1.00;;;0.90;;
12048;SDS011;6085;49.452;8.502;2023-07-13T09:28:20;0.63;;;0.60;;
12048;SDS011;6085;49.452;8.502;2023-07-13T09:32:25;1.35;;;0.93;;
12048;SDS011;6085;49.452;8.502;2023-07-13T09:36:29;0.80;;;0.80;;
12048;SDS011;6085;49.452;8.502;2023-07-13T09:40:36;1.10;;;1.00;;
12048;SDS011;6085;49.452;8.502;2023-07-13T09:44:53;1.10;;;1.02;;
12048;SDS011;6085;49.452;8.502;2023-07-13T09:48:57;1.40;;;0.85;;
12048;SDS011;6085;49.452;8.502;2023-07-13T09:53:00;1.63;;;1.10;;
12048;SDS011;6085;49.452;8.502;2023-07-13T09:57:04;1.15;;;1.10;;
12048;SDS011;6085;49.452;8.502;2023-07-13T10:01:15;1.80;;;1.02;;
12048;SDS011;6085;49.452;8.502;2023-07-13T10:05:38;1.77;;;0.85;;
12048;SDS011;6085;49.452;8.502;2023-07-13T10:09:41;0.90;;;0.85;;
12048;SDS011;6085;49.452;8.502;2023-07-13T10:13:44;0.88;;;0.80;;
12048;SDS011;6085;49.452;8.502;2023-07-13T10:17:52;1.27;;;1.10;;
12048;SDS011;6085;49.452;8.502;2023-07-13T10:21:59;0.60;;;0.60;;
12048;SDS011;6085;49.452;8.502;2023-07-13T10:26:03;1.23;;;0.90;;
12048;SDS011;6085;49.452;8.502;2023-07-13T10:30:12;1.75;;;0.70;;
12048;SDS011;6085;49.452;8.502;2023-07-13T10:34:19;1.27;;;0.90;;
12048;SDS011;6085;49.452;8.502;2023-07-13T10:38:23;1.17;;;1.00;;
12048;SDS011;6085;49.452;8.502;2023-07-13T10:42:28;1.13;;;0.70;;
12048;SDS011;6085;49.452;8.502;2023-07-13T10:46:33;0.50;;;0.50;;
12048;SDS011;6085;49.452;8.502;2023-07-13T10:50:36;2.97;;;2.25;;
12048;SDS011;6085;49.452;8.502;2023-07-13T10:54:41;1.77;;;0.90;;
12048;SDS011;6085;49.452;8.502;2023-07-13T10:58:44;1.60;;;1.00;;
12048;SDS011;6085;49.452;8.502;2023-07-13T11:02:55;2.40;;;0.77;;
12048;SDS011;6085;49.452;8.502;2023-07-13T11:06:59;1.05;;;0.90;;
12048;SDS011;6085;49.452;8.502;2023-07-13T11:11:33;0.50;;;0.50;;
12048;SDS011;6085;49.452;8.502;2023-07-13T11:15:43;0.60;;;0.60;;
12048;SDS011;6085;49.452;8.502;2023-07-13T11:19:50;1.65;;;0.70;;
12048;SDS011;6085;49.452;8.502;2023-07-13T11:24:01;0.73;;;0.70;;
12048;SDS011;6085;49.452;8.502;2023-07-13T11:28:05;1.90;;;0.73;;
12048;SDS011;6085;49.452;8.502;2023-07-13T11:32:21;0.63;;;0.63;;
12048;SDS011;6085;49.452;8.502;2023-07-13T11:36:36;0.70;;;0.68;;
12048;SDS011;6085;49.452;8.502;2023-07-13T11:40:45;0.70;;;0.57;;
12048;SDS011;6085;49.452;8.502;2023-07-13T11:44:49;0.60;;;0.60;;
12048;SDS011;6085;49.452;8.502;2023-07-13T11:48:52;1.02;;;0.93;;
12048;SDS011;6085;49.452;8.502;2023-07-13T11:52:55;1.52;;;0.90;;
12048;SDS011;6085;49.452;8.502;2023-07-13T11:57:03;0.50;;;0.50;;
12048;SDS011;6085;49.452;8.502;2023-07-13T12:01:18;0.85;;;0.85;;
12048;SDS011;6085;49.452;8.502;2023-07-13T12:05:23;0.70;;;0.70;;
12048;SDS011;6085;49.452;8.502;2023-07-13T12:09:26;3.42;;;1.40;;
12048;SDS011;6085;49.452;8.502;2023-07-13T12:13:34;1.73;;;0.70;;
12048;SDS011;6085;49.452;8.502;2023-07-13T12:17:37;0.82;;;0.50;;
12048;SDS011;6085;49.452;8.502;2023-07-13T12:21:41;0.68;;;0.60;;
12048;SDS011;6085;49.452;8.502;2023-07-13T12:25:43;1.15;;;0.52;;
12048;SDS011;6085;49.452;8.502;2023-07-13T12:29:50;1.27;;;0.70;;
12048;SDS011;6085;49.452;8.502;2023-07-13T12:33:58;0.80;;;0.80;;
12048;SDS011;6085;49.452;8.502;2023-07-13T12:38:02;1.13;;;0.65;;
12048;SDS011;6085;49.452;8.502;2023-07-13T12:42:13;1.60;;;0.70;;
12048;SDS011;6085;49.452;8.502;2023-07-13T12:46:23;0.75;;;0.75;;
12048;SDS011;6085;49.452;8.502;2023-07-13T12:50:29;0.90;;;0.68;;
12048;SDS011;6085;49.452;8.502;2023-07-13T12:54:34;1.42;;;0.90;;
12048;SDS011;6085;49.452;8.502;2023-07-13T12:58:42;1.50;;;0.90;;
12048;SDS011;6085;49.452;8.502;2023-07-13T13:02:48;1.27;;;0.73;;
12048;SDS011;6085;49.452;8.502;2023-07-13T13:07:00;1.67;;;0.90;;
12048;SDS011;6085;49.452;8.502;2023-07-13T13:11:03;1.33;;;1.00;;
12048;SDS011;6085;49.452;8.502;2023-07-13T13:15:05;0.82;;;0.82;;
12048;SDS011;6085;49.452;8.502;2023-07-13T13:19:12;1.15;;;1.00;;
12048;SDS011;6085;49.452;8.502;2023-07-13T13:23:16;1.00;;;0.85;;
12048;SDS011;6085;49.452;8.502;2023-07-13T13:27:21;1.20;;;0.95;;
12048;SDS011;6085;49.452;8.502;2023-07-13T13:31:23;1.17;;;0.90;;
12048;SDS011;6085;49.452;8.502;2023-07-13T13:35:27;1.58;;;0.70;;
12048;SDS011;6085;49.452;8.502;2023-07-13T13:39:30;1.25;;;0.95;;
12048;SDS011;6085;49.452;8.502;2023-07-13T13:43:34;0.82;;;0.70;;
12048;SDS011;6085;49.452;8.502;2023-07-13T13:47:36;1.00;;;0.80;;
12048;SDS011;6085;49.452;8.502;2023-07-13T13:51:40;0.60;;;0.60;;
12048;SDS011;6085;49.452;8.502;2023-07-13T13:55:42;0.95;;;0.82;;
12048;SDS011;6085;49.452;8.502;2023-07-13T13:59:44;1.15;;;0.98;;
12048;SDS011;6085;49.452;8.502;2023-07-13T14:03:46;0.80;;;0.75;;
12048;SDS011;6085;49.452;8.502;2023-07-13T14:07:50;0.85;;;0.80;;
12048;SDS011;6085;49.452;8.502;2023-07-13T14:11:52;1.60;;;0.65;;
12048;SDS011;6085;49.452;8.502;2023-07-13T14:15:54;1.92;;;0.90;;
12048;SDS011;6085;49.452;8.502;2023-07-13T14:19:56;1.30;;;0.90;;
12048;SDS011;6085;49.452;8.502;2023-07-13T14:24:01;0.68;;;0.68;;
12048;SDS011;6085;49.452;8.502;2023-07-13T14:28:17;1.10;;;1.00;;
12048;SDS011;6085;49.452;8.502;2023-07-13T14:32:25;1.65;;;0.90;;
12048;SDS011;6085;49.452;8.502;2023-07-13T14:36:29;0.93;;;0.90;;
12048;SDS011;6085;49.452;8.502;2023-07-13T14:40:37;0.63;;;0.63;;
12048;SDS011;6085;49.452;8.502;2023-07-13T14:44:39;1.35;;;0.90;;
12048;SDS011;6085;49.452;8.502;2023-07-13T14:48:41;1.08;;;1.00;;
12048;SDS011;6085;49.452;8.502;2023-07-13T14:52:44;0.98;;;0.75;;
12048;SDS011;6085;49.452;8.502;2023-07-13T14:56:49;1.48;;;0.90;;
12048;SDS011;6085;49.452;8.502;2023-07-13T15:00:51;1.65;;;0.82;;
12048;SDS011;6085;49.452;8.502;2023-07-13T15:04:55;1.10;;;0.95;;
12048;SDS011;6085;49.452;8.502;2023-07-13T15:08:57;0.80;;;0.80;;
12048;SDS011;6085;49.452;8.502;2023-07-13T15:13:01;0.65;;;0.65;;
12048;SDS011;6085;49.452;8.502;2023-07-13T15:17:18;1.77;;;0.80;;
12048;SDS011;6085;49.452;8.502;2023-07-13T15:21:27;1.52;;;0.60;;
12048;SDS011;6085;49.452;8.502;2023-07-13T15:25:34;0.70;;;0.70;;
12048;SDS011;6085;49.452;8.502;2023-07-13T15:29:37;1.58;;;0.98;;
12048;SDS011;6085;49.452;8.502;2023-07-13T15:33:42;0.70;;;0.70;;
12048;SDS011;6085;49.452;8.502;2023-07-13T15:37:45;1.48;;;0.70;;
12048;SDS011;6085;49.452;8.502;2023-07-13T15:41:47;0.70;;;0.70;;
12048;SDS011;6085;49.452;8.502;2023-07-13T15:45:52;1.23;;;0.90;;
12048;SDS011;6085;49.452;8.502;2023-07-13T15:49:54;0.90;;;0.90;;
12048;SDS011;6085;49.452;8.502;2023-07-13T15:53:59;1.27;;;0.88;;
12048;SDS011;6085;49.452;8.502;2023-07-13T15:58:07;0.63;;;0.63;;
12048;SDS011;6085;49.452;8.502;2023-07-13T16:02:17;1.00;;;0.95;;
12048;SDS011;6085;49.452;8.502;2023-07-13T16:06:20;1.98;;;0.95;;
12048;SDS011;6085;49.452;8.502;2023-07-13T16:10:27;0.80;;;0.80;;
12048;SDS011;6085;49.452;8.502;2023-07-13T16:14:32;1.23;;;1.00;;
12048;SDS011;6085;49.452;8.502;2023-07-13T16:18:36;0.77;;;0.57;;
12048;SDS011;6085;49.452;8.502;2023-07-13T16:22:38;1.35;;;0.75;;
12048;SDS011;6085;49.452;8.502;2023-07-13T16:26:41;2.75;;;0.88;;
12048;SDS011;6085;49.452;8.502;2023-07-13T16:30:44;0.88;;;0.70;;
12048;SDS011;6085;49.452;8.502;2023-07-13T16:34:49;1.15;;;1.02;;
12048;SDS011;6085;49.452;8.502;2023-07-13T16:38:50;0.65;;;0.65;;
12048;SDS011;6085;49.452;8.502;2023-07-13T16:42:53;0.50;;;0.50;;
12048;SDS011;6085;49.452;8.502;2023-07-13T16:46:56;0.82;;;0.82;;
12048;SDS011;6085;49.452;8.502;2023-07-13T16:51:01;1.00;;;0.90;;
12048;SDS011;6085;49.452;8.502;2023-07-13T16:55:05;0.85;;;0.80;;
12048;SDS011;6085;49.452;8.502;2023-07-13T16:59:11;0.70;;;0.70;;
12048;SDS011;6085;49.452;8.502;2023-07-13T17:03:15;1.63;;;0.82;;
12048;SDS011;6085;49.452;8.502;2023-07-13T17:07:19;1.95;;;1.10;;
12048;SDS011;6085;49.452;8.502;2023-07-13T17:11:23;0.80;;;0.57;;
12048;SDS011;6085;49.452;8.502;2023-07-13T17:15:26;1.23;;;0.60;;
12048;SDS011;6085;49.452;8.502;2023-07-13T17:19:30;0.90;;;0.75;;
12048;SDS011;6085;49.452;8.502;2023-07-13T17:23:35;1.42;;;0.75;;
12048;SDS011;6085;49.452;8.502;2023-07-13T17:27:40;1.40;;;0.90;;
12048;SDS011;6085;49.452;8.502;2023-07-13T17:31:42;1.20;;;0.80;;
12048;SDS011;6085;49.452;8.502;2023-07-13T17:35:44;0.50;;;0.50;;
12048;SDS011;6085;49.452;8.502;2023-07-13T17:39:48;0.70;;;0.70;;
12048;SDS011;6085;49.452;8.502;2023-07-13T17:43:50;0.77;;;0.70;;
12048;SDS011;6085;49.452;8.502;2023-07-13T17:47:52;0.77;;;0.77;;
12048;SDS011;6085;49.452;8.502;2023-07-13T17:51:54;0.47;;;0.47;;
12048;SDS011;6085;49.452;8.502;2023-07-13T17:55:59;1.20;;;0.98;;
12048;SDS011;6085;49.452;8.502;2023-07-13T18:00:02;1.35;;;0.90;;
12048;SDS011;6085;49.452;8.502;2023-07-13T18:04:26;1.27;;;0.90;;
12048;SDS011;6085;49.452;8.502;2023-07-13T18:08:29;1.08;;;0.60;;
12048;SDS011;6085;49.452;8.502;2023-07-13T18:12:34;1.13;;;0.80;;
12048;SDS011;6085;49.452;8.502;2023-07-13T18:16:36;0.47;;;0.47;;
12048;SDS011;6085;49.452;8.502;2023-07-13T18:20:40;0.65;;;0.60;;
12048;SDS011;6085;49.452;8.502;2023-07-13T18:24:44;0.70;;;0.70;;
12048;SDS011;6085;49.452;8.502;2023-07-13T18:28:48;1.42;;;0.90;;
12048;SDS011;6085;49.452;8.502;2023-07-13T18:32:51;1.13;;;0.90;;
12048;SDS011;6085;49.452;8.502;2023-07-13T18:36:55;1.00;;;1.00;;
12048;SDS011;6085;49.452;8.502;2023-07-13T18:41:00;0.57;;;0.57;;
12048;SDS011;6085;49.452;8.502;2023-07-13T18:45:04;1.45;;;1.25;;
12048;SDS011;6085;49.452;8.502;2023-07-13T18:49:14;1.60;;;1.50;;
12048;SDS011;6085;49.452;8.502;2023-07-13T18:53:17;1.13;;;0.63;;
12048;SDS011;6085;49.452;8.502;2023-07-13T18:57:20;0.70;;;0.70;;
12048;SDS011;6085;49.452;8.502;2023-07-13T19:01:25;0.85;;;0.70;;
12048;SDS011;6085;49.452;8.502;2023-07-13T19:05:32;2.25;;;0.95;;
12048;SDS011;6085;49.452;8.502;2023-07-13T19:09:35;0.88;;;0.57;;
12048;SDS011;6085;49.452;8.502;2023-07-13T19:13:38;1.48;;;0.77;;
12048;SDS011;6085;49.452;8.502;2023-07-13T19:17:42;0.60;;;0.60;;
12048;SDS011;6085;49.452;8.502;2023-07-13T19:21:45;0.60;;;0.60;;
12048;SDS011;6085;49.452;8.502;2023-07-13T19:25:49;0.85;;;0.50;;
12048;SDS011;6085;49.452;8.502;2023-07-13T19:29:52;0.88;;;0.88;;
12048;SDS011;6085;49.452;8.502;2023-07-13T19:33:55;1.88;;;1.00;;
12048;SDS011;6085;49.452;8.502;2023-07-13T19:37:57;0.90;;;0.90;;
12048;SDS011;6085;49.452;8.502;2023-07-13T19:42:01;1.25;;;0.80;;
12048;SDS011;6085;49.452;8.502;2023-07-13T19:46:05;0.70;;;0.70;;
12048;SDS011;6085;49.452;8.502;2023-07-13T19:50:20;2.55;;;0.98;;
12048;SDS011;6085;49.452;8.502;2023-07-13T19:54:22;0.98;;;0.93;;
12048;SDS011;6085;49.452;8.502;2023-07-13T19:58:26;0.70;;;0.70;;
12048;SDS011;6085;49.452;8.502;2023-07-13T20:02:28;0.85;;;0.85;;
12048;SDS011;6085;49.452;8.502;2023-07-13T20:06:32;0.80;;;0.80;;
12048;SDS011;6085;49.452;8.502;2023-07-13T20:10:34;0.98;;;0.88;;
12048;SDS011;6085;49.452;8.502;2023-07-13T20:14:36;0.98;;;0.95;;
12048;SDS011;6085;49.452;8.502;2023-07-13T20:18:38;1.35;;;1.00;;
12048;SDS011;6085;49.452;8.502;2023-07-13T20:22:41;1.15;;;1.10;;
12048;SDS011;6085;49.452;8.502;2023-07-13T20:26:43;1.38;;;1.00;;
12048;SDS011;6085;49.452;8.502;2023-07-13T20:30:47;1.10;;;1.00;;
12048;SDS011;6085;49.452;8.502;2023-07-13T20:34:49;1.80;;;1.00;;
12048;SDS011;6085;49.452;8.502;2023-07-13T20:38:53;0.93;;;0.90;;
12048;SDS011;6085;49.452;8.502;2023-07-13T20:42:55;2.15;;;1.17;;
12048;SDS011;6085;49.452;8.502;2023-07-13T20:46:58;2.15;;;1.10;;
12048;SDS011;6085;49.452;8.502;2023-07-13T20:51:01;1.90;;;0.85;;
12048;SDS011;6085;49.452;8.502;2023-07-13T20:55:10;1.30;;;1.13;;
12048;SDS011;6085;49.452;8.502;2023-07-13T20:59:14;2.47;;;1.05;;
12048;SDS011;6085;49.452;8.502;2023-07-13T21:03:17;1.05;;;0.60;;
12048;SDS011;6085;49.452;8.502;2023-07-13T21:07:22;2.75;;;1.13;;
12048;SDS011;6085;49.452;8.502;2023-07-13T21:11:26;1.25;;;1.15;;
12048;SDS011;6085;49.452;8.502;2023-07-13T21:15:29;2.85;;;1.13;;
12048;SDS011;6085;49.452;8.502;2023-07-13T21:19:33;1.20;;;1.13;;
12048;SDS011;6085;49.452;8.502;2023-07-13T21:23:35;3.33;;;1.13;;
12048;SDS011;6085;49.452;8.502;2023-07-13T21:27:40;1.98;;;1.08;;
12048;SDS011;6085;49.452;8.502;2023-07-13T21:31:42;1.15;;;1.05;;
12048;SDS011;6085;49.452;8.502;2023-07-13T21:35:44;1.33;;;0.90;;
12048;SDS011;6085;49.452;8.502;2023-07-13T21:39:48;1.45;;;0.90;;
12048;SDS011;6085;49.452;8.502;2023-07-13T21:43:53;1.98;;;1.40;;
12048;SDS011;6085;49.452;8.502;2023-07-13T21:47:55;3.28;;;1.10;;
12048;SDS011;6085;49.452;8.502;2023-07-13T21:51:57;1.95;;;0.88;;
12048;SDS011;6085;49.452;8.502;2023-07-13T21:56:00;1.00;;;0.88;;
12048;SDS011;6085;49.452;8.502;2023-07-13T22:00:05;1.50;;;0.80;;
12048;SDS011;6085;49.452;8.502;2023-07-13T22:04:17;0.80;;;0.80;;
12048;SDS011;6085;49.452;8.502;2023-07-13T22:08:25;1.77;;;0.90;;
12048;SDS011;6085;49.452;8.502;2023-07-13T22:12:29;0.73;;;0.73;;
12048;SDS011;6085;49.452;8.502;2023-07-13T22:16:33;1.50;;;0.70;;
12048;SDS011;6085;49.452;8.502;2023-07-13T22:20:35;1.08;;;0.98;;
12048;SDS011;6085;49.452;8.502;2023-07-13T22:24:37;0.90;;;0.82;;
12048;SDS011;6085;49.452;8.502;2023-07-13T22:28:39;0.90;;;0.90;;
12048;SDS011;6085;49.452;8.502;2023-07-13T22:32:43;1.42;;;1.08;;
12048;SDS011;6085;49.452;8.502;2023-07-13T22:36:45;1.95;;;1.33;;
12048;SDS011;6085;49.452;8.502;2023-07-13T22:40:48;1.90;;;1.40;;
12048;SDS011;6085;49.452;8.502;2023-07-13T22:44:51;2.10;;;1.17;;
12048;SDS011;6085;49.452;8.502;2023-07-13T22:48:56;2.92;;;1.05;;
12048;SDS011;6085;49.452;8.502;2023-07-13T22:53:00;1.63;;;1.33;;
12048;SDS011;6085;49.452;8.502;2023-07-13T22:57:02;1.00;;;0.90;;
12048;SDS011;6085;49.452;8.502;2023-07-13T23:01:05;0.85;;;0.85;;
12048;SDS011;6085;49.452;8.502;2023-07-13T23:05:16;1.08;;;0.80;;
12048;SDS011;6085;49.452;8.502;2023-07-13T23:09:19;1.10;;;0.80;;
12048;SDS011;6085;49.452;8.502;2023-07-13T23:13:22;2.03;;;1.10;;
12048;SDS011;6085;49.452;8.502;2023-07-13T23:17:24;2.20;;;1.10;;
12048;SDS011;6085;49.452;8.502;2023-07-13T23:21:28;0.88;;;0.88;;
12048;SDS011;6085;49.452;8.502;2023-07-13T23:25:31;1.00;;;0.90;;
12048;SDS011;6085;49.452;8.502;2023-07-13T23:29:33;1.38;;;1.08;;
12048;SDS011;6085;49.452;8.502;2023-07-13T23:33:35;1.02;;;1.02;;
12048;SDS011;6085;49.452;8.502;2023-07-13T23:37:39;1.05;;;0.95;;
12048;SDS011;6085;49.452;8.502;2023-07-13T23:41:42;0.90;;;0.90;;
12048;SDS011;6085;49.452;8.502;2023-07-13T23:45:46;1.58;;;0.90;;
12048;SDS011;6085;49.452;8.502;2023-07-13T23:54:46;0.70;;;0.70;;
12048;SDS011;6085;49.452;8.502;2023-07-13T23:58:48;0.77;;;0.77;;
